sensor_id;sensor_type;location;lat;lon;timestamp;P1;durP1;ratioP1;P2;durP2;ratioP2
26951;SDS011;14507;52.418;13.398;2023-06-22T00:00:57;17.45;;;13.25;;
26951;SDS011;14507;52.418;13.398;2023-06-22T00:03:24;18.63;;;13.45;;
26951;SDS011;14507;52.418;13.398;2023-06-22T00:05:50;16.83;;;13.57;;
26951;SDS011;14507;52.418;13.398;2023-06-22T00:08:17;18.33;;;14.05;;
26951;SDS011;14507;52.418;13.398;2023-06-22T00:10:44;15.95;;;12.48;;
26951;SDS011;14507;52.418;13.398;2023-06-22T00:13:10;17.63;;;13.15;;
26951;SDS011;14507;52.418;13.398;2023-06-22T00:15:37;17.08;;;13.23;;
26951;SDS011;14507;52.418;13.398;2023-06-22T00:18:04;18.17;;;13.10;;
26951;SDS011;14507;52.418;13.398;2023-06-22T00:20:31;19.35;;;13.13;;
26951;SDS011;14507;52.418;13.398;2023-06-22T00:22:57;16.67;;;13.13;;
26951;SDS011;14507;52.418;13.398;2023-06-22T00:25:25;15.32;;;11.95;;
26951;SDS011;14507;52.418;13.398;2023-06-22T00:27:50;16.05;;;12.20;;
26951;SDS011;14507;52.418;13.398;2023-06-22T00:30:16;16.50;;;12.35;;
26951;SDS011;14507;52.418;13.398;2023-06-22T00:32:44;17.83;;;13.18;;
26951;SDS011;14507;52.418;13.398;2023-06-22T00:35:11;16.70;;;12.88;;
26951;SDS011;14507;52.418;13.398;2023-06-22T00:37:38;17.65;;;12.18;;
26951;SDS011;14507;52.418;13.398;2023-06-22T00:40:07;15.50;;;12.45;;
26951;SDS011;14507;52.418;13.398;2023-06-22T00:42:34;16.70;;;12.82;;
26951;SDS011;14507;52.418;13.398;2023-06-22T00:44:59;16.48;;;12.75;;
26951;SDS011;14507;52.418;13.398;2023-06-22T00:47:25;17.27;;;11.98;;
26951;SDS011;14507;52.418;13.398;2023-06-22T00:49:51;15.50;;;12.10;;
26951;SDS011;14507;52.418;13.398;2023-06-22T00:52:19;15.10;;;11.63;;
26951;SDS011;14507;52.418;13.398;2023-06-22T00:54:50;17.35;;;12.57;;
26951;SDS011;14507;52.418;13.398;2023-06-22T00:57:16;17.05;;;11.90;;
26951;SDS011;14507;52.418;13.398;2023-06-22T00:59:43;16.65;;;11.23;;
26951;SDS011;14507;52.418;13.398;2023-06-22T01:02:10;15.02;;;11.50;;
26951;SDS011;14507;52.418;13.398;2023-06-22T01:04:37;15.10;;;11.07;;
26951;SDS011;14507;52.418;13.398;2023-06-22T01:12:32;17.40;;;11.48;;
26951;SDS011;14507;52.418;13.398;2023-06-22T01:15:37;14.63;;;11.20;;
26951;SDS011;14507;52.418;13.398;2023-06-22T01:18:03;18.88;;;10.60;;
26951;SDS011;14507;52.418;13.398;2023-06-22T01:20:30;14.13;;;10.90;;
26951;SDS011;14507;52.418;13.398;2023-06-22T01:23:02;14.38;;;11.30;;
26951;SDS011;14507;52.418;13.398;2023-06-22T01:25:46;12.57;;;9.82;;
26951;SDS011;14507;52.418;13.398;2023-06-22T01:31:03;14.55;;;10.40;;
26951;SDS011;14507;52.418;13.398;2023-06-22T01:33:33;14.00;;;10.80;;
26951;SDS011;14507;52.418;13.398;2023-06-22T01:36:02;14.98;;;10.50;;
26951;SDS011;14507;52.418;13.398;2023-06-22T01:38:29;15.13;;;9.85;;
26951;SDS011;14507;52.418;13.398;2023-06-22T01:40:57;12.50;;;9.50;;
26951;SDS011;14507;52.418;13.398;2023-06-22T01:43:24;11.43;;;9.32;;
26951;SDS011;14507;52.418;13.398;2023-06-22T01:45:51;13.20;;;9.63;;
26951;SDS011;14507;52.418;13.398;2023-06-22T01:48:18;13.98;;;10.38;;
26951;SDS011;14507;52.418;13.398;2023-06-22T01:50:45;14.80;;;9.50;;
26951;SDS011;14507;52.418;13.398;2023-06-22T01:53:11;13.00;;;9.38;;
26951;SDS011;14507;52.418;13.398;2023-06-22T01:55:36;17.80;;;10.27;;
26951;SDS011;14507;52.418;13.398;2023-06-22T01:58:02;13.90;;;10.88;;
26951;SDS011;14507;52.418;13.398;2023-06-22T02:00:28;13.25;;;9.60;;
26951;SDS011;14507;52.418;13.398;2023-06-22T02:03:02;15.18;;;10.30;;
26951;SDS011;14507;52.418;13.398;2023-06-22T02:05:43;14.25;;;9.98;;
26951;SDS011;14507;52.418;13.398;2023-06-22T02:08:48;11.82;;;9.75;;
26951;SDS011;14507;52.418;13.398;2023-06-22T02:11:11;13.75;;;10.75;;
26951;SDS011;14507;52.418;13.398;2023-06-22T02:13:39;14.00;;;10.40;;
26951;SDS011;14507;52.418;13.398;2023-06-22T02:16:08;21.38;;;12.20;;
26951;SDS011;14507;52.418;13.398;2023-06-22T02:18:36;14.52;;;10.70;;
26951;SDS011;14507;52.418;13.398;2023-06-22T02:21:02;15.68;;;11.18;;
26951;SDS011;14507;52.418;13.398;2023-06-22T02:23:28;15.57;;;11.15;;
26951;SDS011;14507;52.418;13.398;2023-06-22T02:25:54;16.83;;;11.82;;
26951;SDS011;14507;52.418;13.398;2023-06-22T02:28:19;15.82;;;11.73;;
26951;SDS011;14507;52.418;13.398;2023-06-22T02:30:45;14.27;;;10.95;;
26951;SDS011;14507;52.418;13.398;2023-06-22T02:33:10;15.18;;;10.80;;
26951;SDS011;14507;52.418;13.398;2023-06-22T02:35:36;16.23;;;11.65;;
26951;SDS011;14507;52.418;13.398;2023-06-22T02:38:03;15.07;;;11.20;;
26951;SDS011;14507;52.418;13.398;2023-06-22T02:40:29;13.65;;;10.95;;
26951;SDS011;14507;52.418;13.398;2023-06-22T02:42:56;18.92;;;12.05;;
26951;SDS011;14507;52.418;13.398;2023-06-22T02:45:27;17.15;;;12.70;;
26951;SDS011;14507;52.418;13.398;2023-06-22T02:47:53;24.17;;;13.52;;
26951;SDS011;14507;52.418;13.398;2023-06-22T02:50:18;18.15;;;13.07;;
26951;SDS011;14507;52.418;13.398;2023-06-22T02:52:44;15.45;;;11.77;;
26951;SDS011;14507;52.418;13.398;2023-06-22T02:55:09;17.15;;;12.13;;
26951;SDS011;14507;52.418;13.398;2023-06-22T02:57:35;17.58;;;13.30;;
26951;SDS011;14507;52.418;13.398;2023-06-22T03:00:02;20.58;;;14.25;;
26951;SDS011;14507;52.418;13.398;2023-06-22T03:02:37;19.55;;;12.90;;
26951;SDS011;14507;52.418;13.398;2023-06-22T03:05:03;17.38;;;13.30;;
26951;SDS011;14507;52.418;13.398;2023-06-22T03:07:29;18.00;;;12.57;;
26951;SDS011;14507;52.418;13.398;2023-06-22T03:09:55;17.45;;;13.32;;
26951;SDS011;14507;52.418;13.398;2023-06-22T03:12:20;20.25;;;12.88;;
26951;SDS011;14507;52.418;13.398;2023-06-22T03:14:46;18.35;;;13.85;;
26951;SDS011;14507;52.418;13.398;2023-06-22T03:17:12;19.45;;;14.38;;
26951;SDS011;14507;52.418;13.398;2023-06-22T03:19:37;20.67;;;14.63;;
26951;SDS011;14507;52.418;13.398;2023-06-22T03:22:03;23.38;;;14.80;;
26951;SDS011;14507;52.418;13.398;2023-06-22T03:24:29;20.55;;;14.77;;
26951;SDS011;14507;52.418;13.398;2023-06-22T03:26:54;19.98;;;15.10;;
26951;SDS011;14507;52.418;13.398;2023-06-22T03:29:21;20.15;;;14.48;;
26951;SDS011;14507;52.418;13.398;2023-06-22T03:31:47;20.35;;;15.00;;
26951;SDS011;14507;52.418;13.398;2023-06-22T03:34:13;20.20;;;15.30;;
26951;SDS011;14507;52.418;13.398;2023-06-22T03:36:38;24.45;;;15.40;;
26951;SDS011;14507;52.418;13.398;2023-06-22T03:39:04;17.98;;;13.25;;
26951;SDS011;14507;52.418;13.398;2023-06-22T03:41:29;25.05;;;16.08;;
26951;SDS011;14507;52.418;13.398;2023-06-22T03:43:55;20.48;;;15.90;;
26951;SDS011;14507;52.418;13.398;2023-06-22T03:46:21;19.95;;;14.13;;
26951;SDS011;14507;52.418;13.398;2023-06-22T03:48:46;22.15;;;15.35;;
26951;SDS011;14507;52.418;13.398;2023-06-22T03:51:12;20.33;;;15.35;;
26951;SDS011;14507;52.418;13.398;2023-06-22T03:53:37;19.45;;;15.23;;
26951;SDS011;14507;52.418;13.398;2023-06-22T03:56:03;22.08;;;15.27;;
26951;SDS011;14507;52.418;13.398;2023-06-22T03:58:29;21.40;;;15.50;;
26951;SDS011;14507;52.418;13.398;2023-06-22T04:00:57;23.40;;;15.40;;
26951;SDS011;14507;52.418;13.398;2023-06-22T04:03:24;22.05;;;15.57;;
26951;SDS011;14507;52.418;13.398;2023-06-22T04:05:50;20.60;;;14.43;;
26951;SDS011;14507;52.418;13.398;2023-06-22T04:08:16;21.10;;;15.07;;
26951;SDS011;14507;52.418;13.398;2023-06-22T04:10:41;20.08;;;14.50;;
26951;SDS011;14507;52.418;13.398;2023-06-22T04:13:07;18.15;;;13.98;;
26951;SDS011;14507;52.418;13.398;2023-06-22T04:15:33;20.40;;;13.63;;
26951;SDS011;14507;52.418;13.398;2023-06-22T04:17:59;17.40;;;12.98;;
26951;SDS011;14507;52.418;13.398;2023-06-22T04:20:25;21.63;;;13.93;;
26951;SDS011;14507;52.418;13.398;2023-06-22T04:22:52;17.48;;;13.30;;
26951;SDS011;14507;52.418;13.398;2023-06-22T04:25:18;16.33;;;12.25;;
26951;SDS011;14507;52.418;13.398;2023-06-22T04:27:44;20.27;;;13.82;;
26951;SDS011;14507;52.418;13.398;2023-06-22T04:30:11;19.52;;;13.90;;
26951;SDS011;14507;52.418;13.398;2023-06-22T04:32:39;19.73;;;13.25;;
26951;SDS011;14507;52.418;13.398;2023-06-22T04:35:06;18.00;;;12.40;;
26951;SDS011;14507;52.418;13.398;2023-06-22T04:37:32;19.80;;;13.32;;
26951;SDS011;14507;52.418;13.398;2023-06-22T04:39:58;19.80;;;13.07;;
26951;SDS011;14507;52.418;13.398;2023-06-22T04:42:27;17.23;;;12.50;;
26951;SDS011;14507;52.418;13.398;2023-06-22T04:44:53;18.30;;;12.90;;
26951;SDS011;14507;52.418;13.398;2023-06-22T04:47:19;16.90;;;12.32;;
26951;SDS011;14507;52.418;13.398;2023-06-22T04:49:45;17.65;;;11.40;;
26951;SDS011;14507;52.418;13.398;2023-06-22T04:52:11;14.93;;;11.50;;
26951;SDS011;14507;52.418;13.398;2023-06-22T04:54:38;15.95;;;11.13;;
26951;SDS011;14507;52.418;13.398;2023-06-22T04:57:15;18.42;;;12.13;;
26951;SDS011;14507;52.418;13.398;2023-06-22T04:59:41;17.40;;;11.73;;
26951;SDS011;14507;52.418;13.398;2023-06-22T05:02:07;14.38;;;11.23;;
26951;SDS011;14507;52.418;13.398;2023-06-22T05:04:33;18.83;;;10.10;;
26951;SDS011;14507;52.418;13.398;2023-06-22T05:07:00;17.77;;;10.18;;
26951;SDS011;14507;52.418;13.398;2023-06-22T05:09:27;16.90;;;9.77;;
26951;SDS011;14507;52.418;13.398;2023-06-22T05:11:54;13.65;;;9.00;;
26951;SDS011;14507;52.418;13.398;2023-06-22T05:14:21;15.23;;;9.50;;
26951;SDS011;14507;52.418;13.398;2023-06-22T05:16:48;16.05;;;10.63;;
26951;SDS011;14507;52.418;13.398;2023-06-22T05:19:14;14.98;;;10.35;;
26951;SDS011;14507;52.418;13.398;2023-06-22T05:21:40;17.27;;;10.18;;
26951;SDS011;14507;52.418;13.398;2023-06-22T05:24:05;13.48;;;9.43;;
26951;SDS011;14507;52.418;13.398;2023-06-22T05:26:34;17.85;;;9.52;;
26951;SDS011;14507;52.418;13.398;2023-06-22T05:29:00;14.80;;;9.23;;
26951;SDS011;14507;52.418;13.398;2023-06-22T05:31:29;13.80;;;9.43;;
26951;SDS011;14507;52.418;13.398;2023-06-22T05:33:55;12.20;;;9.07;;
26951;SDS011;14507;52.418;13.398;2023-06-22T05:36:21;16.88;;;8.15;;
26951;SDS011;14507;52.418;13.398;2023-06-22T05:38:50;11.70;;;8.40;;
26951;SDS011;14507;52.418;13.398;2023-06-22T05:41:16;12.57;;;7.45;;
26951;SDS011;14507;52.418;13.398;2023-06-22T05:43:42;11.00;;;7.30;;
26951;SDS011;14507;52.418;13.398;2023-06-22T05:46:08;15.55;;;7.00;;
26951;SDS011;14507;52.418;13.398;2023-06-22T05:48:33;9.38;;;6.70;;
26951;SDS011;14507;52.418;13.398;2023-06-22T05:50:59;9.68;;;6.88;;
26951;SDS011;14507;52.418;13.398;2023-06-22T05:53:25;11.95;;;6.97;;
26951;SDS011;14507;52.418;13.398;2023-06-22T05:55:50;9.77;;;6.82;;
26951;SDS011;14507;52.418;13.398;2023-06-22T05:58:16;10.18;;;8.23;;
26951;SDS011;14507;52.418;13.398;2023-06-22T06:00:42;10.80;;;7.60;;
26951;SDS011;14507;52.418;13.398;2023-06-22T06:03:08;14.05;;;7.90;;
26951;SDS011;14507;52.418;13.398;2023-06-22T06:05:34;15.18;;;7.57;;
26951;SDS011;14507;52.418;13.398;2023-06-22T06:08:01;10.95;;;7.35;;
26951;SDS011;14507;52.418;13.398;2023-06-22T06:10:29;11.70;;;5.95;;
26951;SDS011;14507;52.418;13.398;2023-06-22T06:12:56;10.68;;;6.35;;
26951;SDS011;14507;52.418;13.398;2023-06-22T06:15:22;11.93;;;5.90;;
26951;SDS011;14507;52.418;13.398;2023-06-22T06:17:51;9.65;;;5.78;;
26951;SDS011;14507;52.418;13.398;2023-06-22T06:20:18;7.95;;;5.05;;
26951;SDS011;14507;52.418;13.398;2023-06-22T06:22:45;8.43;;;4.73;;
26951;SDS011;14507;52.418;13.398;2023-06-22T06:25:11;8.82;;;4.20;;
26951;SDS011;14507;52.418;13.398;2023-06-22T06:27:41;7.45;;;4.50;;
26951;SDS011;14507;52.418;13.398;2023-06-22T06:30:07;9.30;;;4.40;;
26951;SDS011;14507;52.418;13.398;2023-06-22T06:32:34;5.82;;;4.03;;
26951;SDS011;14507;52.418;13.398;2023-06-22T06:34:59;10.50;;;4.47;;
26951;SDS011;14507;52.418;13.398;2023-06-22T06:37:25;8.73;;;3.90;;
26951;SDS011;14507;52.418;13.398;2023-06-22T06:39:50;7.68;;;4.32;;
26951;SDS011;14507;52.418;13.398;2023-06-22T06:42:16;7.65;;;4.10;;
26951;SDS011;14507;52.418;13.398;2023-06-22T06:44:41;6.97;;;4.05;;
26951;SDS011;14507;52.418;13.398;2023-06-22T06:47:07;7.22;;;3.80;;
26951;SDS011;14507;52.418;13.398;2023-06-22T06:49:33;9.02;;;4.18;;
26951;SDS011;14507;52.418;13.398;2023-06-22T06:51:59;6.50;;;3.70;;
26951;SDS011;14507;52.418;13.398;2023-06-22T06:54:24;6.07;;;4.18;;
26951;SDS011;14507;52.418;13.398;2023-06-22T06:56:50;5.30;;;3.67;;
26951;SDS011;14507;52.418;13.398;2023-06-22T06:59:15;6.32;;;3.80;;
26951;SDS011;14507;52.418;13.398;2023-06-22T07:01:41;5.90;;;3.67;;
26951;SDS011;14507;52.418;13.398;2023-06-22T07:04:09;6.88;;;3.60;;
26951;SDS011;14507;52.418;13.398;2023-06-22T07:06:35;6.22;;;3.50;;
26951;SDS011;14507;52.418;13.398;2023-06-22T07:09:01;6.68;;;3.17;;
26951;SDS011;14507;52.418;13.398;2023-06-22T07:11:27;8.43;;;3.72;;
26951;SDS011;14507;52.418;13.398;2023-06-22T07:13:52;5.57;;;3.78;;
26951;SDS011;14507;52.418;13.398;2023-06-22T07:16:18;7.47;;;3.35;;
26951;SDS011;14507;52.418;13.398;2023-06-22T07:18:44;5.93;;;3.30;;
26951;SDS011;14507;52.418;13.398;2023-06-22T07:21:09;6.35;;;3.45;;
26951;SDS011;14507;52.418;13.398;2023-06-22T07:23:35;5.38;;;3.13;;
26951;SDS011;14507;52.418;13.398;2023-06-22T07:26:00;5.32;;;3.55;;
26951;SDS011;14507;52.418;13.398;2023-06-22T07:28:27;6.18;;;3.63;;
26951;SDS011;14507;52.418;13.398;2023-06-22T07:30:54;5.38;;;3.53;;
26951;SDS011;14507;52.418;13.398;2023-06-22T07:33:20;7.53;;;3.38;;
26951;SDS011;14507;52.418;13.398;2023-06-22T07:35:45;5.13;;;3.17;;
26951;SDS011;14507;52.418;13.398;2023-06-22T07:38:12;5.35;;;3.30;;
26951;SDS011;14507;52.418;13.398;2023-06-22T07:40:39;12.75;;;3.50;;
26951;SDS011;14507;52.418;13.398;2023-06-22T07:43:06;5.45;;;3.33;;
26951;SDS011;14507;52.418;13.398;2023-06-22T07:45:32;6.28;;;3.60;;
26951;SDS011;14507;52.418;13.398;2023-06-22T07:48:00;8.05;;;4.03;;
26951;SDS011;14507;52.418;13.398;2023-06-22T07:50:26;7.30;;;4.07;;
26951;SDS011;14507;52.418;13.398;2023-06-22T07:52:51;9.55;;;4.30;;
26951;SDS011;14507;52.418;13.398;2023-06-22T07:55:18;8.70;;;3.40;;
26951;SDS011;14507;52.418;13.398;2023-06-22T07:57:43;9.70;;;3.47;;
26951;SDS011;14507;52.418;13.398;2023-06-22T08:00:12;5.90;;;3.38;;
26951;SDS011;14507;52.418;13.398;2023-06-22T08:05:06;5.30;;;3.30;;
26951;SDS011;14507;52.418;13.398;2023-06-22T08:07:36;6.13;;;3.40;;
26951;SDS011;14507;52.418;13.398;2023-06-22T08:10:03;5.47;;;3.83;;
26951;SDS011;14507;52.418;13.398;2023-06-22T08:12:29;6.15;;;3.67;;
26951;SDS011;14507;52.418;13.398;2023-06-22T08:14:55;5.95;;;3.28;;
26951;SDS011;14507;52.418;13.398;2023-06-22T08:17:22;7.93;;;3.63;;
26951;SDS011;14507;52.418;13.398;2023-06-22T08:19:48;5.18;;;3.10;;
26951;SDS011;14507;52.418;13.398;2023-06-22T08:22:14;5.38;;;3.50;;
26951;SDS011;14507;52.418;13.398;2023-06-22T08:24:40;5.78;;;3.28;;
26951;SDS011;14507;52.418;13.398;2023-06-22T08:27:09;4.93;;;3.10;;
26951;SDS011;14507;52.418;13.398;2023-06-22T08:29:36;5.43;;;3.30;;
26951;SDS011;14507;52.418;13.398;2023-06-22T08:32:02;6.57;;;3.22;;
26951;SDS011;14507;52.418;13.398;2023-06-22T08:34:28;7.25;;;3.70;;
26951;SDS011;14507;52.418;13.398;2023-06-22T08:36:54;5.60;;;3.80;;
26951;SDS011;14507;52.418;13.398;2023-06-22T08:39:19;5.43;;;3.42;;
26951;SDS011;14507;52.418;13.398;2023-06-22T08:41:45;5.40;;;3.30;;
26951;SDS011;14507;52.418;13.398;2023-06-22T08:44:16;8.23;;;4.30;;
26951;SDS011;14507;52.418;13.398;2023-06-22T08:46:43;7.68;;;3.17;;
26951;SDS011;14507;52.418;13.398;2023-06-22T08:49:08;7.00;;;3.47;;
26951;SDS011;14507;52.418;13.398;2023-06-22T08:51:35;5.57;;;3.10;;
26951;SDS011;14507;52.418;13.398;2023-06-22T08:54:01;4.35;;;3.30;;
26951;SDS011;14507;52.418;13.398;2023-06-22T08:56:26;6.55;;;3.53;;
26951;SDS011;14507;52.418;13.398;2023-06-22T08:58:52;5.50;;;3.30;;
26951;SDS011;14507;52.418;13.398;2023-06-22T09:01:17;7.75;;;3.50;;
26951;SDS011;14507;52.418;13.398;2023-06-22T09:03:43;4.50;;;3.10;;
26951;SDS011;14507;52.418;13.398;2023-06-22T09:06:09;5.10;;;3.20;;
26951;SDS011;14507;52.418;13.398;2023-06-22T09:08:35;5.38;;;3.33;;
26951;SDS011;14507;52.418;13.398;2023-06-22T09:11:01;6.68;;;3.33;;
26951;SDS011;14507;52.418;13.398;2023-06-22T09:13:29;6.80;;;3.05;;
26951;SDS011;14507;52.418;13.398;2023-06-22T09:15:56;5.22;;;3.28;;
26951;SDS011;14507;52.418;13.398;2023-06-22T09:18:21;6.18;;;2.97;;
26951;SDS011;14507;52.418;13.398;2023-06-22T09:20:47;4.90;;;2.80;;
26951;SDS011;14507;52.418;13.398;2023-06-22T09:23:13;4.68;;;3.17;;
26951;SDS011;14507;52.418;13.398;2023-06-22T09:25:39;6.15;;;3.10;;
26951;SDS011;14507;52.418;13.398;2023-06-22T09:28:06;9.13;;;3.90;;
26951;SDS011;14507;52.418;13.398;2023-06-22T09:30:31;6.63;;;3.45;;
26951;SDS011;14507;52.418;13.398;2023-06-22T09:32:57;7.43;;;3.53;;
26951;SDS011;14507;52.418;13.398;2023-06-22T09:35:22;5.50;;;3.10;;
26951;SDS011;14507;52.418;13.398;2023-06-22T09:37:48;4.88;;;2.97;;
26951;SDS011;14507;52.418;13.398;2023-06-22T09:40:14;3.67;;;2.42;;
26951;SDS011;14507;52.418;13.398;2023-06-22T09:45:07;4.38;;;3.00;;
26951;SDS011;14507;52.418;13.398;2023-06-22T09:47:33;7.10;;;3.38;;
26951;SDS011;14507;52.418;13.398;2023-06-22T09:49:59;4.90;;;2.70;;
26951;SDS011;14507;52.418;13.398;2023-06-22T09:52:25;5.75;;;3.15;;
26951;SDS011;14507;52.418;13.398;2023-06-22T09:54:50;6.47;;;2.78;;
26951;SDS011;14507;52.418;13.398;2023-06-22T09:57:16;6.57;;;3.15;;
26951;SDS011;14507;52.418;13.398;2023-06-22T09:59:42;5.15;;;2.90;;
26951;SDS011;14507;52.418;13.398;2023-06-22T10:02:08;7.38;;;3.47;;
26951;SDS011;14507;52.418;13.398;2023-06-22T10:04:34;5.00;;;3.10;;
26951;SDS011;14507;52.418;13.398;2023-06-22T10:07:00;10.18;;;3.13;;
26951;SDS011;14507;52.418;13.398;2023-06-22T10:09:26;4.03;;;2.70;;
26951;SDS011;14507;52.418;13.398;2023-06-22T10:11:52;7.15;;;2.72;;
26951;SDS011;14507;52.418;13.398;2023-06-22T10:14:17;5.35;;;3.05;;
26951;SDS011;14507;52.418;13.398;2023-06-22T10:16:43;5.78;;;3.45;;
26951;SDS011;14507;52.418;13.398;2023-06-22T10:19:09;3.85;;;2.63;;
26951;SDS011;14507;52.418;13.398;2023-06-22T10:21:34;16.95;;;4.63;;
26951;SDS011;14507;52.418;13.398;2023-06-22T10:24:00;11.23;;;3.60;;
26951;SDS011;14507;52.418;13.398;2023-06-22T10:26:31;4.88;;;2.70;;
26951;SDS011;14507;52.418;13.398;2023-06-22T10:28:58;4.83;;;3.07;;
26951;SDS011;14507;52.418;13.398;2023-06-22T10:31:24;31.98;;;5.50;;
26951;SDS011;14507;52.418;13.398;2023-06-22T10:33:49;6.38;;;2.90;;
26951;SDS011;14507;52.418;13.398;2023-06-22T10:36:15;4.72;;;2.70;;
26951;SDS011;14507;52.418;13.398;2023-06-22T10:38:40;6.07;;;2.53;;
26951;SDS011;14507;52.418;13.398;2023-06-22T10:41:06;4.85;;;2.72;;
26951;SDS011;14507;52.418;13.398;2023-06-22T10:43:32;6.95;;;2.97;;
26951;SDS011;14507;52.418;13.398;2023-06-22T10:45:57;4.47;;;2.80;;
26951;SDS011;14507;52.418;13.398;2023-06-22T10:48:23;7.60;;;2.83;;
26951;SDS011;14507;52.418;13.398;2023-06-22T10:50:49;4.97;;;2.72;;
26951;SDS011;14507;52.418;13.398;2023-06-22T10:53:14;4.88;;;3.05;;
26951;SDS011;14507;52.418;13.398;2023-06-22T10:55:40;5.22;;;2.88;;
26951;SDS011;14507;52.418;13.398;2023-06-22T10:58:05;8.68;;;3.67;;
26951;SDS011;14507;52.418;13.398;2023-06-22T11:00:31;5.70;;;3.22;;
26951;SDS011;14507;52.418;13.398;2023-06-22T11:02:57;3.97;;;2.60;;
26951;SDS011;14507;52.418;13.398;2023-06-22T11:05:23;5.78;;;3.22;;
26951;SDS011;14507;52.418;13.398;2023-06-22T11:07:49;5.28;;;2.67;;
26951;SDS011;14507;52.418;13.398;2023-06-22T11:10:15;4.75;;;3.03;;
26951;SDS011;14507;52.418;13.398;2023-06-22T11:12:41;4.53;;;2.92;;
26951;SDS011;14507;52.418;13.398;2023-06-22T11:15:07;5.00;;;3.00;;
26951;SDS011;14507;52.418;13.398;2023-06-22T11:17:34;5.25;;;3.17;;
26951;SDS011;14507;52.418;13.398;2023-06-22T11:20:00;6.07;;;3.00;;
26951;SDS011;14507;52.418;13.398;2023-06-22T11:22:26;7.40;;;2.95;;
26951;SDS011;14507;52.418;13.398;2023-06-22T11:24:52;4.25;;;2.97;;
26951;SDS011;14507;52.418;13.398;2023-06-22T11:27:17;6.38;;;3.20;;
26951;SDS011;14507;52.418;13.398;2023-06-22T11:29:43;4.63;;;3.10;;
26951;SDS011;14507;52.418;13.398;2023-06-22T11:32:09;6.45;;;3.03;;
26951;SDS011;14507;52.418;13.398;2023-06-22T11:34:35;4.63;;;3.03;;
26951;SDS011;14507;52.418;13.398;2023-06-22T11:37:00;24.33;;;4.72;;
26951;SDS011;14507;52.418;13.398;2023-06-22T11:39:26;10.70;;;4.15;;
26951;SDS011;14507;52.418;13.398;2023-06-22T11:41:51;16.27;;;3.70;;
26951;SDS011;14507;52.418;13.398;2023-06-22T11:44:17;11.68;;;4.05;;
26951;SDS011;14507;52.418;13.398;2023-06-22T11:46:43;7.00;;;3.47;;
26951;SDS011;14507;52.418;13.398;2023-06-22T11:49:09;5.43;;;2.95;;
26951;SDS011;14507;52.418;13.398;2023-06-22T11:51:34;5.95;;;2.97;;
26951;SDS011;14507;52.418;13.398;2023-06-22T11:54:00;6.35;;;3.38;;
26951;SDS011;14507;52.418;13.398;2023-06-22T11:56:26;3.85;;;2.75;;
26951;SDS011;14507;52.418;13.398;2023-06-22T11:58:52;4.00;;;2.80;;
26951;SDS011;14507;52.418;13.398;2023-06-22T12:01:19;8.80;;;3.60;;
26951;SDS011;14507;52.418;13.398;2023-06-22T12:03:44;7.75;;;2.80;;
26951;SDS011;14507;52.418;13.398;2023-06-22T12:06:10;6.38;;;3.28;;
26951;SDS011;14507;52.418;13.398;2023-06-22T12:08:36;4.22;;;2.78;;
26951;SDS011;14507;52.418;13.398;2023-06-22T12:11:02;6.53;;;3.20;;
26951;SDS011;14507;52.418;13.398;2023-06-22T12:13:27;4.85;;;3.30;;
26951;SDS011;14507;52.418;13.398;2023-06-22T12:15:53;5.32;;;2.88;;
26951;SDS011;14507;52.418;13.398;2023-06-22T12:18:19;4.68;;;3.00;;
26951;SDS011;14507;52.418;13.398;2023-06-22T12:20:46;4.65;;;2.80;;
26951;SDS011;14507;52.418;13.398;2023-06-22T12:23:12;5.63;;;3.20;;
26951;SDS011;14507;52.418;13.398;2023-06-22T12:25:38;6.82;;;2.95;;
26951;SDS011;14507;52.418;13.398;2023-06-22T12:28:04;4.25;;;3.00;;
26951;SDS011;14507;52.418;13.398;2023-06-22T12:30:30;4.90;;;3.33;;
26951;SDS011;14507;52.418;13.398;2023-06-22T12:32:58;8.10;;;3.50;;
26951;SDS011;14507;52.418;13.398;2023-06-22T12:35:23;5.03;;;3.55;;
26951;SDS011;14507;52.418;13.398;2023-06-22T12:37:49;6.78;;;2.90;;
26951;SDS011;14507;52.418;13.398;2023-06-22T12:40:15;5.50;;;3.63;;
26951;SDS011;14507;52.418;13.398;2023-06-22T12:42:40;4.75;;;3.53;;
26951;SDS011;14507;52.418;13.398;2023-06-22T12:45:07;6.27;;;3.60;;
26951;SDS011;14507;52.418;13.398;2023-06-22T12:47:33;4.72;;;3.42;;
26951;SDS011;14507;52.418;13.398;2023-06-22T12:49:59;5.20;;;3.38;;
26951;SDS011;14507;52.418;13.398;2023-06-22T12:52:24;5.53;;;3.53;;
26951;SDS011;14507;52.418;13.398;2023-06-22T12:54:50;7.07;;;3.40;;
26951;SDS011;14507;52.418;13.398;2023-06-22T12:57:17;5.57;;;3.70;;
26951;SDS011;14507;52.418;13.398;2023-06-22T12:59:44;6.40;;;3.90;;
26951;SDS011;14507;52.418;13.398;2023-06-22T13:02:10;6.55;;;4.28;;
26951;SDS011;14507;52.418;13.398;2023-06-22T13:04:35;9.43;;;4.05;;
26951;SDS011;14507;52.418;13.398;2023-06-22T13:07:01;6.13;;;3.70;;
26951;SDS011;14507;52.418;13.398;2023-06-22T13:09:27;5.05;;;3.47;;
26951;SDS011;14507;52.418;13.398;2023-06-22T13:11:52;5.28;;;3.60;;
26951;SDS011;14507;52.418;13.398;2023-06-22T13:14:18;4.93;;;3.50;;
26951;SDS011;14507;52.418;13.398;2023-06-22T13:16:44;6.95;;;4.30;;
26951;SDS011;14507;52.418;13.398;2023-06-22T13:19:09;5.72;;;3.80;;
26951;SDS011;14507;52.418;13.398;2023-06-22T13:21:35;9.18;;;4.13;;
26951;SDS011;14507;52.418;13.398;2023-06-22T13:24:01;7.88;;;3.53;;
26951;SDS011;14507;52.418;13.398;2023-06-22T13:26:26;7.63;;;3.40;;
26951;SDS011;14507;52.418;13.398;2023-06-22T13:28:53;4.72;;;3.17;;
26951;SDS011;14507;52.418;13.398;2023-06-22T13:31:19;7.47;;;4.05;;
26951;SDS011;14507;52.418;13.398;2023-06-22T13:33:45;4.65;;;3.38;;
26951;SDS011;14507;52.418;13.398;2023-06-22T13:38:38;5.18;;;3.42;;
26951;SDS011;14507;52.418;13.398;2023-06-22T13:41:04;8.43;;;3.55;;
26951;SDS011;14507;52.418;13.398;2023-06-22T13:43:30;8.10;;;3.78;;
26951;SDS011;14507;52.418;13.398;2023-06-22T13:45:56;6.30;;;3.58;;
26951;SDS011;14507;52.418;13.398;2023-06-22T13:48:22;5.13;;;3.50;;
26951;SDS011;14507;52.418;13.398;2023-06-22T13:50:50;4.82;;;3.70;;
26951;SDS011;14507;52.418;13.398;2023-06-22T13:53:16;5.05;;;3.70;;
26951;SDS011;14507;52.418;13.398;2023-06-22T13:55:42;6.30;;;3.78;;
26951;SDS011;14507;52.418;13.398;2023-06-22T13:58:07;5.82;;;3.53;;
26951;SDS011;14507;52.418;13.398;2023-06-22T14:00:33;6.63;;;4.30;;
26951;SDS011;14507;52.418;13.398;2023-06-22T14:02:59;6.07;;;4.05;;
26951;SDS011;14507;52.418;13.398;2023-06-22T14:05:24;6.80;;;3.95;;
26951;SDS011;14507;52.418;13.398;2023-06-22T14:07:50;5.38;;;3.60;;
26951;SDS011;14507;52.418;13.398;2023-06-22T14:10:15;5.35;;;3.80;;
26951;SDS011;14507;52.418;13.398;2023-06-22T14:12:41;6.22;;;3.97;;
26951;SDS011;14507;52.418;13.398;2023-06-22T14:15:07;6.72;;;4.00;;
26951;SDS011;14507;52.418;13.398;2023-06-22T14:17:33;7.35;;;3.80;;
26951;SDS011;14507;52.418;13.398;2023-06-22T14:19:58;6.18;;;3.90;;
26951;SDS011;14507;52.418;13.398;2023-06-22T14:22:24;9.05;;;4.07;;
26951;SDS011;14507;52.418;13.398;2023-06-22T14:24:50;7.10;;;3.97;;
26951;SDS011;14507;52.418;13.398;2023-06-22T14:27:16;11.40;;;3.85;;
26951;SDS011;14507;52.418;13.398;2023-06-22T14:29:42;5.95;;;3.72;;
26951;SDS011;14507;52.418;13.398;2023-06-22T14:32:08;5.03;;;3.78;;
26951;SDS011;14507;52.418;13.398;2023-06-22T14:34:34;4.88;;;3.70;;